createdAt,value
2018-06-12T00:02:04.824Z,17.10
2018-06-12T00:04:33.269Z,17.10
2018-06-12T00:07:01.857Z,17.00
2018-06-12T00:09:30.457Z,16.90
2018-06-12T00:11:58.982Z,17.00
2018-06-12T00:14:27.541Z,16.90
2018-06-12T00:16:56.006Z,16.90
2018-06-12T00:19:24.620Z,16.90
2018-06-12T00:21:53.088Z,16.80
2018-06-12T00:24:21.596Z,16.80
2018-06-12T00:26:50.062Z,16.80
2018-06-12T00:29:18.508Z,16.80
2018-06-12T00:31:46.960Z,16.80
2018-06-12T00:34:15.461Z,16.80
2018-06-12T00:36:43.981Z,16.70
2018-06-12T00:39:12.509Z,16.70
2018-06-12T00:41:40.910Z,16.70
2018-06-12T00:44:09.355Z,16.60
2018-06-12T00:46:37.883Z,16.60
2018-06-12T00:49:06.372Z,16.60
2018-06-12T00:51:34.812Z,16.50
2018-06-12T00:54:03.249Z,16.50
2018-06-12T00:56:42.905Z,16.50
2018-06-12T00:59:11.370Z,16.50
2018-06-12T01:01:39.841Z,16.40
2018-06-12T01:04:08.340Z,16.40
2018-06-12T01:06:36.828Z,16.40
2018-06-12T01:09:06.505Z,16.40
2018-06-12T01:11:34.977Z,16.30
2018-06-12T01:14:03.471Z,16.30
2018-06-12T01:16:32.003Z,16.30
2018-06-12T01:19:00.634Z,16.20
2018-06-12T01:21:29.073Z,16.20
2018-06-12T01:23:57.612Z,16.20
2018-06-12T01:26:26.053Z,16.20
2018-06-12T01:28:54.488Z,16.20
2018-06-12T01:31:22.929Z,16.10
2018-06-12T01:33:51.485Z,16.10
2018-06-12T01:36:19.916Z,16.10
2018-06-12T01:38:48.357Z,16.10
2018-06-12T01:41:16.793Z,16.10
2018-06-12T01:43:45.245Z,16.00
2018-06-12T01:46:13.676Z,16.00
2018-06-12T01:48:42.124Z,16.00
2018-06-12T01:51:10.589Z,15.90
2018-06-12T01:53:39.117Z,15.90
2018-06-12T01:56:07.716Z,15.90
2018-06-12T01:58:36.197Z,15.90
2018-06-12T02:01:04.669Z,15.90
2018-06-12T02:03:33.128Z,15.80
2018-06-12T02:06:01.592Z,15.80
2018-06-12T02:08:30.027Z,15.80
2018-06-12T02:10:58.529Z,15.80
2018-06-12T02:13:26.973Z,15.80
2018-06-12T02:15:55.396Z,15.70
2018-06-12T02:18:23.882Z,15.70
2018-06-12T02:20:52.315Z,15.70
2018-06-12T02:23:20.772Z,15.60
2018-06-12T02:25:49.221Z,15.60
2018-06-12T02:28:17.684Z,15.60
2018-06-12T02:30:46.132Z,15.50
2018-06-12T02:33:14.573Z,15.50
2018-06-12T02:35:43.056Z,15.50
2018-06-12T02:38:11.548Z,15.50
2018-06-12T02:40:40.006Z,15.40
2018-06-12T02:43:08.504Z,15.40
2018-06-12T02:45:37.013Z,15.40
2018-06-12T02:48:05.452Z,15.40
2018-06-12T02:50:33.917Z,15.40
2018-06-12T02:53:02.368Z,15.40
2018-06-12T02:55:30.818Z,15.30
2018-06-12T02:57:59.278Z,15.30
2018-06-12T03:00:27.709Z,15.30
2018-06-12T03:02:56.161Z,15.30
2018-06-12T03:05:25.083Z,15.30
2018-06-12T03:07:53.556Z,15.20
2018-06-12T03:12:50.176Z,15.20
2018-06-12T03:15:18.673Z,15.20
2018-06-12T03:17:47.182Z,15.10
2018-06-12T03:20:15.640Z,15.10
2018-06-12T03:22:44.049Z,15.00
2018-06-12T03:25:12.508Z,15.00
2018-06-12T03:27:41.021Z,15.00
2018-06-12T03:30:09.501Z,15.00
2018-06-12T03:32:38.079Z,15.00
2018-06-12T03:35:06.565Z,14.90
2018-06-12T03:37:35.030Z,14.90
2018-06-12T03:40:03.541Z,14.90
2018-06-12T03:42:32.004Z,14.90
2018-06-12T03:45:00.532Z,14.80
2018-06-12T03:47:28.973Z,14.80
2018-06-12T03:49:57.518Z,14.80
2018-06-12T03:52:26.010Z,14.80
2018-06-12T03:54:54.444Z,14.70
2018-06-12T03:57:22.910Z,14.70
2018-06-12T03:59:51.337Z,14.70
2018-06-12T04:04:47.940Z,14.70
2018-06-12T04:07:16.552Z,14.70
2018-06-12T04:09:44.961Z,14.70
2018-06-12T04:14:41.620Z,14.70
2018-06-12T04:17:10.017Z,14.70
2018-06-12T04:19:38.540Z,14.70
2018-06-12T04:22:07.019Z,14.60
2018-06-12T04:24:35.503Z,14.50
2018-06-12T04:27:03.976Z,14.50
2018-06-12T04:29:32.445Z,14.50
2018-06-12T04:32:00.913Z,14.50
2018-06-12T04:34:29.532Z,14.40
2018-06-12T04:39:26.248Z,14.40
2018-06-12T04:41:54.746Z,14.40
2018-06-12T04:44:23.285Z,14.40
2018-06-12T04:46:51.760Z,14.40
2018-06-12T04:49:20.209Z,14.40
2018-06-12T04:51:48.725Z,14.40
2018-06-12T04:54:17.165Z,14.40
2018-06-12T04:56:45.633Z,14.30
2018-06-12T04:59:15.848Z,14.40
2018-06-12T05:01:44.384Z,14.40
2018-06-12T05:04:12.851Z,14.40
2018-06-12T05:06:41.293Z,14.40
2018-06-12T05:09:09.749Z,14.40
2018-06-12T05:11:38.197Z,14.40
2018-06-12T05:14:06.733Z,14.40
2018-06-12T05:16:35.176Z,14.30
2018-06-12T05:19:03.805Z,14.50
2018-06-12T05:21:32.326Z,14.50
2018-06-12T05:24:00.841Z,14.40
2018-06-12T05:26:29.292Z,14.50
2018-06-12T05:28:57.744Z,14.50
2018-06-12T05:31:26.409Z,14.60
2018-06-12T05:33:54.884Z,14.60
2018-06-12T05:36:23.340Z,14.60
2018-06-12T05:38:51.812Z,14.70
2018-06-12T05:41:20.629Z,14.50
2018-06-12T05:43:49.116Z,14.50
2018-06-12T05:46:17.589Z,14.60
2018-06-12T05:48:46.061Z,14.60
2018-06-12T05:51:14.489Z,14.60
2018-06-12T05:53:42.950Z,14.60
2018-06-12T05:56:11.574Z,14.60
2018-06-12T05:58:40.163Z,14.70
2018-06-12T06:01:08.608Z,14.60
2018-06-12T06:03:37.080Z,14.60
2018-06-12T06:06:05.523Z,14.70
2018-06-12T06:08:33.993Z,14.70
2018-06-12T06:11:02.448Z,14.70
2018-06-12T06:13:30.940Z,14.70
2018-06-12T06:15:59.372Z,14.80
2018-06-12T06:18:27.881Z,14.70
2018-06-12T06:20:56.360Z,14.60
2018-06-12T06:23:24.860Z,14.80
2018-06-12T06:25:53.301Z,14.80
2018-06-12T06:28:21.738Z,14.80
2018-06-12T06:30:50.186Z,14.90
2018-06-12T06:33:18.640Z,14.70
2018-06-12T06:35:47.522Z,14.90
2018-06-12T06:38:15.993Z,14.80
2018-06-12T06:40:44.456Z,14.70
2018-06-12T06:43:12.935Z,14.70
2018-06-12T06:45:41.415Z,14.90
2018-06-12T06:48:09.877Z,15.00
2018-06-12T06:50:38.336Z,15.00
2018-06-12T06:53:06.804Z,15.00
2018-06-12T06:55:35.245Z,15.10
2018-06-12T06:58:03.924Z,15.00
2018-06-12T07:00:32.420Z,15.00
2018-06-12T07:03:00.932Z,15.00
2018-06-12T07:05:29.369Z,15.20
2018-06-12T07:07:57.820Z,15.10
2018-06-12T07:10:26.245Z,15.10
2018-06-12T07:12:55.705Z,15.00
2018-06-12T07:15:24.235Z,15.10
2018-06-12T07:17:52.697Z,15.30
2018-06-12T07:21:31.052Z,15.20
2018-06-12T07:23:59.532Z,15.30
2018-06-12T07:26:27.983Z,15.50
2018-06-12T07:28:56.538Z,15.10
2018-06-12T07:31:24.957Z,15.30
2018-06-12T07:33:53.416Z,15.30
2018-06-12T07:36:21.893Z,15.30
2018-06-12T07:38:50.428Z,15.40
2018-06-12T07:41:18.932Z,15.60
2018-06-12T07:43:47.392Z,15.60
2018-06-12T07:46:15.860Z,15.40
2018-06-12T07:48:44.332Z,15.30
2018-06-12T07:51:12.836Z,15.40
2018-06-12T07:53:41.297Z,15.30
2018-06-12T07:56:09.773Z,15.40
2018-06-12T07:58:38.229Z,15.30
2018-06-12T08:01:06.713Z,15.30
2018-06-12T08:03:35.151Z,15.60
2018-06-12T08:06:03.628Z,15.40
2018-06-12T08:11:00.228Z,15.40
2018-06-12T08:13:28.729Z,15.50
2018-06-12T08:15:57.249Z,15.40
2018-06-12T08:18:25.696Z,15.40
2018-06-12T08:20:54.158Z,15.50
2018-06-12T08:23:22.605Z,15.60
2018-06-12T08:25:51.037Z,15.70
2018-06-12T08:28:19.535Z,15.70
2018-06-12T08:30:48.006Z,15.70
2018-06-12T08:33:16.500Z,15.80
2018-06-12T08:35:45.057Z,15.90
2018-06-12T08:38:13.492Z,16.20
2018-06-12T08:40:42.010Z,15.80
2018-06-12T08:43:10.473Z,15.80
2018-06-12T08:45:39.072Z,16.10
2018-06-12T08:48:07.512Z,16.10
2018-06-12T08:50:35.956Z,16.20
2018-06-12T08:53:04.445Z,16.10
2018-06-12T08:55:32.921Z,16.20
2018-06-12T08:58:01.449Z,16.10
2018-06-12T09:00:29.980Z,16.00
2018-06-12T09:02:58.433Z,16.10
2018-06-12T09:05:26.889Z,16.20
2018-06-12T09:07:55.352Z,16.30
2018-06-12T09:10:23.830Z,16.50
2018-06-12T09:12:52.380Z,16.10
2018-06-12T09:15:20.908Z,16.10
2018-06-12T09:17:49.368Z,16.00
2018-06-12T09:20:17.853Z,16.00
2018-06-12T09:22:46.268Z,16.00
2018-06-12T09:25:14.774Z,16.00
2018-06-12T09:27:48.581Z,16.10
2018-06-12T09:30:18.085Z,15.90
2018-06-12T09:32:47.032Z,16.10
2018-06-12T09:35:15.524Z,16.10
2018-06-12T09:37:43.990Z,16.00
2018-06-12T09:40:12.422Z,16.10
2018-06-12T09:42:40.933Z,16.00
2018-06-12T09:45:09.395Z,16.00
2018-06-12T09:47:37.977Z,16.10
2018-06-12T09:50:06.443Z,16.20
2018-06-12T09:52:34.901Z,16.10
2018-06-12T09:55:03.384Z,16.30
2018-06-12T10:00:00.543Z,16.20
2018-06-12T10:02:29.009Z,16.20
2018-06-12T10:04:57.449Z,16.40
2018-06-12T10:07:25.990Z,16.30
2018-06-12T10:09:54.526Z,16.40
2018-06-12T10:12:22.990Z,16.50
2018-06-12T10:14:51.444Z,16.40
2018-06-12T10:17:19.956Z,16.60
2018-06-12T10:19:48.433Z,16.50
2018-06-12T10:22:16.865Z,16.30
2018-06-12T10:24:45.497Z,16.30
2018-06-12T10:27:14.084Z,16.30
2018-06-12T10:29:42.522Z,16.20
2018-06-12T10:32:11.033Z,16.20
2018-06-12T10:34:39.533Z,16.50
2018-06-12T10:37:08.208Z,16.30
2018-06-12T10:39:36.674Z,16.30
2018-06-12T10:42:05.157Z,16.10
2018-06-12T10:44:33.605Z,15.90
2018-06-12T10:47:02.157Z,16.00
2018-06-12T10:49:30.604Z,16.10
2018-06-12T10:51:59.306Z,16.00
2018-06-12T10:54:27.746Z,15.90
2018-06-12T10:56:56.272Z,16.00
2018-06-12T10:59:24.701Z,16.10
2018-06-12T11:01:53.202Z,16.00
2018-06-12T11:04:21.657Z,15.80
2018-06-12T11:06:50.168Z,15.90
2018-06-12T11:09:18.660Z,15.60
2018-06-12T11:11:47.096Z,15.50
2018-06-12T11:14:15.656Z,15.40
2018-06-12T11:16:44.101Z,15.30
2018-06-12T11:19:12.568Z,15.30
2018-06-12T11:21:41.034Z,15.10
2018-06-12T11:24:09.512Z,15.00
2018-06-12T11:26:37.948Z,14.70
2018-06-12T11:29:06.401Z,14.50
2018-06-12T11:31:34.861Z,14.60
2018-06-12T11:34:03.362Z,14.70
2018-06-12T11:36:31.793Z,15.10
2018-06-12T11:39:00.289Z,15.20
2018-06-12T11:41:28.821Z,15.40
2018-06-12T11:43:57.277Z,15.40
2018-06-12T11:46:25.722Z,15.70
2018-06-12T11:48:54.200Z,15.80
2018-06-12T11:51:22.632Z,15.70
2018-06-12T11:53:51.135Z,15.00
2018-06-12T11:56:19.785Z,14.70
2018-06-12T11:58:48.252Z,14.30
2018-06-12T12:01:16.722Z,14.40
2018-06-12T12:03:45.345Z,14.50
2018-06-12T12:06:13.808Z,14.40
2018-06-12T12:08:42.297Z,14.50
2018-06-12T12:11:10.733Z,14.80
2018-06-12T12:13:39.302Z,15.00
2018-06-12T12:16:07.769Z,15.00
2018-06-12T12:18:36.212Z,15.40
2018-06-12T12:21:04.677Z,15.40
2018-06-12T12:23:33.905Z,15.60
2018-06-12T12:26:02.397Z,15.30
2018-06-12T12:28:30.832Z,15.50
2018-06-12T12:30:59.292Z,15.50
2018-06-12T12:33:27.740Z,15.30
2018-06-12T12:35:56.213Z,15.40
2018-06-12T12:40:52.922Z,15.30
2018-06-12T12:43:21.377Z,15.40
2018-06-12T12:45:49.905Z,15.30
2018-06-12T12:50:46.647Z,15.50
2018-06-12T12:53:15.234Z,15.50
2018-06-12T12:55:43.723Z,15.20
2018-06-12T12:58:12.153Z,14.90
2018-06-12T13:00:40.704Z,14.90
2018-06-12T13:03:09.146Z,15.10
2018-06-12T13:05:37.604Z,15.10
2018-06-12T13:08:06.132Z,15.40
2018-06-12T13:10:34.569Z,15.10
2018-06-12T13:13:03.029Z,15.20
2018-06-12T13:15:31.600Z,15.50
2018-06-12T13:18:00.053Z,15.40
2018-06-12T13:20:28.689Z,15.30
2018-06-12T13:22:57.209Z,15.40
2018-06-12T13:25:25.769Z,15.50
2018-06-12T13:27:54.304Z,15.50
2018-06-12T13:30:23.032Z,15.80
2018-06-12T13:32:51.489Z,15.70
2018-06-12T13:35:19.933Z,15.80
2018-06-12T13:37:48.483Z,15.60
2018-06-12T13:40:17.024Z,15.50
2018-06-12T13:42:45.485Z,15.30
2018-06-12T13:45:13.981Z,15.50
2018-06-12T13:47:42.496Z,15.50
2018-06-12T13:50:10.967Z,15.50
2018-06-12T13:52:39.420Z,15.40
2018-06-12T13:55:07.873Z,15.50
2018-06-12T13:57:36.304Z,15.50
2018-06-12T14:00:05.377Z,15.40
2018-06-12T14:02:33.934Z,15.50
2018-06-12T14:05:02.366Z,15.30
2018-06-12T14:07:30.900Z,15.50
2018-06-12T14:09:59.367Z,15.80
2018-06-12T14:12:27.804Z,15.80
2018-06-12T14:14:56.305Z,15.60
2018-06-12T14:17:24.745Z,15.60
2018-06-12T14:19:53.193Z,15.60
2018-06-12T14:22:21.709Z,15.80
2018-06-12T14:24:50.151Z,15.50
2018-06-12T14:27:18.716Z,15.50
2018-06-12T14:29:47.181Z,15.50
2018-06-12T14:32:15.743Z,15.70
2018-06-12T14:34:44.242Z,15.80
2018-06-12T14:37:12.737Z,15.70
2018-06-12T14:39:41.225Z,15.70
2018-06-12T14:42:09.732Z,15.70
2018-06-12T14:44:38.196Z,15.90
2018-06-12T14:47:06.653Z,15.60
2018-06-12T14:49:35.109Z,15.50
2018-06-12T14:52:03.667Z,15.60
2018-06-12T14:54:32.176Z,15.60
2018-06-12T14:57:00.750Z,15.80
2018-06-12T14:59:29.209Z,15.70
2018-06-12T15:01:57.727Z,15.60
2018-06-12T15:04:26.197Z,15.60
2018-06-12T15:06:54.624Z,15.50
2018-06-12T15:09:23.108Z,15.40
2018-06-12T15:11:51.540Z,15.40
2018-06-12T15:16:48.164Z,15.50
2018-06-12T15:19:16.736Z,15.40
2018-06-12T15:21:45.249Z,15.50
2018-06-12T15:24:13.740Z,15.60
2018-06-12T15:26:42.267Z,15.70
2018-06-12T15:29:10.721Z,16.00
2018-06-12T15:31:39.209Z,16.00
2018-06-12T15:34:07.653Z,16.00
2018-06-12T15:36:36.112Z,16.00
2018-06-12T15:39:06.382Z,16.30
2018-06-12T15:41:34.915Z,16.60
2018-06-12T15:44:03.508Z,16.60
2018-06-12T15:46:31.997Z,16.40
2018-06-12T15:49:00.434Z,16.10
2018-06-12T15:51:29.144Z,16.40
2018-06-12T15:53:57.626Z,16.30
2018-06-12T15:56:26.123Z,16.20
2018-06-12T15:58:54.561Z,16.10
2018-06-12T16:01:23.080Z,16.40
2018-06-12T16:03:51.531Z,16.50
2018-06-12T16:06:19.969Z,16.60
2018-06-12T16:08:48.397Z,16.30
2018-06-12T16:11:16.892Z,16.50
2018-06-12T16:13:45.368Z,16.80
2018-06-12T16:16:13.849Z,16.50
2018-06-12T16:18:42.276Z,16.50
2018-06-12T16:21:10.892Z,16.60
2018-06-12T16:23:39.412Z,16.60
2018-06-12T16:26:07.883Z,16.70
2018-06-12T16:28:36.436Z,16.90
2018-06-12T16:31:04.905Z,17.00
2018-06-12T16:33:33.376Z,17.00
2018-06-12T16:36:01.852Z,16.80
2018-06-12T16:38:30.356Z,16.70
2018-06-12T16:40:58.813Z,16.70
2018-06-12T16:43:27.404Z,16.50
2018-06-12T16:45:55.864Z,16.50
2018-06-12T16:48:24.298Z,16.80
2018-06-12T16:53:21.049Z,16.70
2018-06-12T16:55:49.633Z,16.80
2018-06-12T16:58:18.256Z,16.70
2018-06-12T17:00:46.946Z,16.60
2018-06-12T17:03:15.556Z,16.50
2018-06-12T17:05:44.229Z,16.70
2018-06-12T17:08:12.945Z,16.60
2018-06-12T17:10:41.514Z,16.60
2018-06-12T17:13:10.672Z,16.60
2018-06-12T17:15:39.295Z,16.70
2018-06-12T17:18:07.972Z,16.80
2018-06-12T17:20:36.668Z,16.80
2018-06-12T17:23:05.425Z,16.60
2018-06-12T17:25:34.082Z,16.70
2018-06-12T17:28:02.794Z,16.70
2018-06-12T17:30:31.388Z,16.60
2018-06-12T17:33:00.092Z,16.50
2018-06-12T17:35:28.665Z,16.60
2018-06-12T17:37:57.237Z,16.60
2018-06-12T17:40:27.008Z,16.40
2018-06-12T17:42:55.510Z,16.40
2018-06-12T17:45:24.508Z,16.40
2018-06-12T17:47:53.061Z,16.40
2018-06-12T17:50:21.641Z,16.40
2018-06-12T17:52:50.193Z,16.30
2018-06-12T17:55:18.713Z,16.30
2018-06-12T17:57:47.356Z,16.30
2018-06-12T18:00:15.953Z,16.30
2018-06-12T18:02:44.529Z,16.30
2018-06-12T18:05:13.178Z,16.20
2018-06-12T18:07:41.796Z,16.30
2018-06-12T18:12:39.150Z,16.10
2018-06-12T18:15:07.706Z,16.10
2018-06-12T18:17:36.630Z,16.10
2018-06-12T18:20:05.290Z,15.90
2018-06-12T18:22:33.937Z,15.80
2018-06-12T18:25:02.470Z,15.80
2018-06-12T18:27:31.107Z,15.80
2018-06-12T18:29:59.726Z,15.70
2018-06-12T18:32:28.208Z,15.70
2018-06-12T18:34:56.697Z,15.60
2018-06-12T18:37:25.238Z,15.70
2018-06-12T18:39:53.857Z,15.70
2018-06-12T18:42:23.836Z,15.70
2018-06-12T18:44:52.338Z,14.20
2018-06-12T18:47:20.980Z,15.80
2018-06-12T18:49:52.565Z,15.90
2018-06-12T18:52:21.193Z,15.90
2018-06-12T18:54:49.985Z,15.80
2018-06-12T18:57:18.784Z,15.80
2018-06-12T18:59:48.011Z,15.70
2018-06-12T19:02:16.541Z,15.80
2018-06-12T19:04:45.054Z,15.70
2018-06-12T19:07:13.805Z,15.70
2018-06-12T19:09:42.485Z,15.70
2018-06-12T19:12:11.041Z,15.70
2018-06-12T19:14:39.622Z,15.70
2018-06-12T19:17:08.302Z,15.60
2018-06-12T19:19:37.844Z,15.60
2018-06-12T19:22:06.590Z,15.60
2018-06-12T19:24:35.074Z,15.60
2018-06-12T19:27:03.969Z,15.50
2018-06-12T19:29:32.512Z,15.50
2018-06-12T19:32:01.185Z,15.50
2018-06-12T19:34:29.706Z,15.50
2018-06-12T19:36:58.280Z,15.50
2018-06-12T19:39:26.793Z,15.50
2018-06-12T19:41:55.343Z,15.40
2018-06-12T19:44:23.991Z,15.40
2018-06-12T19:46:52.548Z,15.40
2018-06-12T19:49:21.148Z,15.30
2018-06-12T19:51:49.657Z,15.30
2018-06-12T19:54:18.644Z,15.30
2018-06-12T19:56:47.116Z,15.30
2018-06-12T19:59:16.012Z,15.20
2018-06-12T20:01:44.577Z,15.30
2018-06-12T20:04:13.092Z,15.20
2018-06-12T20:06:41.562Z,15.00
2018-06-12T20:09:10.149Z,14.90
2018-06-12T20:11:38.692Z,14.80
2018-06-12T20:14:07.212Z,14.80
2018-06-12T20:16:35.887Z,14.80
2018-06-12T20:19:04.475Z,14.80
2018-06-12T20:21:33.066Z,14.80
2018-06-12T20:24:01.528Z,14.80
2018-06-12T20:26:30.399Z,14.70
2018-06-12T20:28:58.884Z,14.80
2018-06-12T20:31:27.440Z,14.80
2018-06-12T20:33:55.945Z,14.70
2018-06-12T20:36:24.461Z,14.60
2018-06-12T20:38:52.996Z,14.60
2018-06-12T20:41:21.549Z,14.50
2018-06-12T20:43:50.035Z,14.50
2018-06-12T20:46:18.548Z,14.50
2018-06-12T20:48:47.078Z,14.50
2018-06-12T20:51:15.768Z,14.50
2018-06-12T20:53:44.401Z,14.50
2018-06-12T20:56:12.918Z,14.40
2018-06-12T20:58:42.105Z,14.40
2018-06-12T21:01:10.710Z,14.50
2018-06-12T21:03:39.518Z,14.50
2018-06-12T21:06:08.045Z,14.50
2018-06-12T21:08:36.616Z,14.50
2018-06-12T21:11:05.168Z,14.50
2018-06-12T21:13:33.669Z,14.40
2018-06-12T21:16:02.242Z,14.40
2018-06-12T21:18:30.801Z,14.30
2018-06-12T21:23:27.544Z,14.40
2018-06-12T21:25:56.275Z,14.40
2018-06-12T21:28:24.904Z,14.40
2018-06-12T21:30:53.425Z,14.40
2018-06-12T21:33:22.281Z,14.30
2018-06-12T21:35:50.946Z,14.30
2018-06-12T21:38:19.543Z,14.30
2018-06-12T21:43:16.329Z,14.30
2018-06-12T21:45:44.870Z,14.20
2018-06-12T21:48:13.424Z,14.20
2018-06-12T21:50:42.032Z,14.20
2018-06-12T21:53:11.299Z,14.20
2018-06-12T21:55:39.930Z,14.30
2018-06-12T22:00:40.183Z,14.30
2018-06-12T22:03:08.714Z,14.30
2018-06-12T22:05:37.199Z,14.20
2018-06-12T22:08:05.793Z,14.20
2018-06-12T22:10:34.577Z,14.10
2018-06-12T22:13:03.041Z,14.20
2018-06-12T22:15:31.739Z,14.20
2018-06-12T22:18:00.501Z,14.20
2018-06-12T22:20:29.036Z,14.00
2018-06-12T22:25:39.011Z,14.00
2018-06-12T22:28:07.761Z,14.00
2018-06-12T22:30:36.309Z,14.00
2018-06-12T22:33:05.561Z,14.00
2018-06-12T22:38:02.464Z,14.00
2018-06-12T22:40:31.348Z,14.10
2018-06-12T22:42:59.842Z,14.00
2018-06-12T22:45:31.173Z,14.00
2018-06-12T22:47:59.651Z,14.00
2018-06-12T22:50:28.121Z,14.00
2018-06-12T22:52:56.673Z,13.90
2018-06-12T22:55:25.271Z,13.90
2018-06-12T22:57:53.910Z,14.00
2018-06-12T23:00:22.454Z,14.00
2018-06-12T23:02:50.961Z,14.00
2018-06-12T23:05:20.259Z,14.00
2018-06-12T23:07:48.728Z,13.90
2018-06-12T23:10:17.261Z,14.00
2018-06-12T23:12:46.035Z,13.90
2018-06-12T23:15:14.580Z,13.80
2018-06-12T23:17:45.804Z,13.90
2018-06-12T23:20:25.484Z,13.90
2018-06-12T23:22:53.949Z,13.90
2018-06-12T23:25:22.492Z,13.70
2018-06-12T23:27:51.495Z,13.70
2018-06-12T23:30:20.039Z,13.70
2018-06-12T23:32:48.608Z,13.70
2018-06-12T23:35:17.120Z,13.60
2018-06-12T23:37:45.581Z,13.60
2018-06-12T23:40:14.141Z,13.60
2018-06-12T23:42:43.072Z,13.50
2018-06-12T23:45:11.646Z,13.50
2018-06-12T23:47:40.157Z,13.40
2018-06-12T23:50:08.661Z,13.30
2018-06-12T23:52:37.143Z,13.30
2018-06-12T23:55:06.742Z,13.30
2018-06-12T23:57:35.258Z,13.20
